sensor_id;sensor_type;location;lat;lon;timestamp;temperature;humidity
4904;DHT22;2467;48.142;11.616;2023-12-14T00:00:05;7.00;99.90
4904;DHT22;2467;48.142;11.616;2023-12-14T00:00:39;7.00;99.90
4904;DHT22;2467;48.142;11.616;2023-12-14T00:01:13;6.90;99.90
4904;DHT22;2467;48.142;11.616;2023-12-14T00:01:45;7.00;99.90
4904;DHT22;2467;48.142;11.616;2023-12-14T00:02:18;7.00;99.90
4904;DHT22;2467;48.142;11.616;2023-12-14T00:02:51;7.00;99.90
4904;DHT22;2467;48.142;11.616;2023-12-14T00:03:23;7.00;99.90
4904;DHT22;2467;48.142;11.616;2023-12-14T00:03:55;7.00;99.90
4904;DHT22;2467;48.142;11.616;2023-12-14T00:04:27;7.00;99.90
4904;DHT22;2467;48.142;11.616;2023-12-14T00:05:00;7.00;99.90
4904;DHT22;2467;48.142;11.616;2023-12-14T00:05:32;7.00;99.90
4904;DHT22;2467;48.142;11.616;2023-12-14T00:06:04;7.00;99.90
4904;DHT22;2467;48.142;11.616;2023-12-14T00:06:36;7.00;99.90
4904;DHT22;2467;48.142;11.616;2023-12-14T00:07:08;7.00;99.90
4904;DHT22;2467;48.142;11.616;2023-12-14T00:07:42;7.00;99.90
4904;DHT22;2467;48.142;11.616;2023-12-14T00:08:14;7.00;99.90
4904;DHT22;2467;48.142;11.616;2023-12-14T00:08:46;6.90;99.90
4904;DHT22;2467;48.142;11.616;2023-12-14T00:09:18;6.90;99.90
4904;DHT22;2467;48.142;11.616;2023-12-14T00:09:51;6.90;99.90
4904;DHT22;2467;48.142;11.616;2023-12-14T00:10:23;6.90;99.90
4904;DHT22;2467;48.142;11.616;2023-12-14T00:10:56;6.90;99.90
4904;DHT22;2467;48.142;11.616;2023-12-14T00:11:28;6.90;99.90
4904;DHT22;2467;48.142;11.616;2023-12-14T00:12:01;6.90;99.90
4904;DHT22;2467;48.142;11.616;2023-12-14T00:12:33;6.80;99.90
4904;DHT22;2467;48.142;11.616;2023-12-14T00:13:06;6.80;99.90
4904;DHT22;2467;48.142;11.616;2023-12-14T00:13:39;6.90;99.90
4904;DHT22;2467;48.142;11.616;2023-12-14T00:14:13;6.90;99.90
4904;DHT22;2467;48.142;11.616;2023-12-14T00:14:45;6.90;99.90
4904;DHT22;2467;48.142;11.616;2023-12-14T00:15:17;6.90;99.90
4904;DHT22;2467;48.142;11.616;2023-12-14T00:15:50;6.90;99.90
4904;DHT22;2467;48.142;11.616;2023-12-14T00:16:23;6.90;99.90
4904;DHT22;2467;48.142;11.616;2023-12-14T00:16:55;6.90;99.90
4904;DHT22;2467;48.142;11.616;2023-12-14T00:17:30;6.90;99.90
4904;DHT22;2467;48.142;11.616;2023-12-14T00:18:02;6.90;99.90
4904;DHT22;2467;48.142;11.616;2023-12-14T00:18:36;6.90;99.90
4904;DHT22;2467;48.142;11.616;2023-12-14T00:19:08;6.90;99.90
4904;DHT22;2467;48.142;11.616;2023-12-14T00:19:40;7.00;99.90
4904;DHT22;2467;48.142;11.616;2023-12-14T00:20:12;6.90;99.90
4904;DHT22;2467;48.142;11.616;2023-12-14T00:20:46;6.90;99.90
4904;DHT22;2467;48.142;11.616;2023-12-14T00:21:18;7.00;99.90
4904;DHT22;2467;48.142;11.616;2023-12-14T00:21:50;7.00;99.90
4904;DHT22;2467;48.142;11.616;2023-12-14T00:22:22;7.00;99.90
4904;DHT22;2467;48.142;11.616;2023-12-14T00:22:54;7.00;99.90
4904;DHT22;2467;48.142;11.616;2023-12-14T00:23:27;7.00;99.90
4904;DHT22;2467;48.142;11.616;2023-12-14T00:23:59;7.00;99.90
4904;DHT22;2467;48.142;11.616;2023-12-14T00:24:31;7.00;99.90
4904;DHT22;2467;48.142;11.616;2023-12-14T00:25:05;7.10;99.90
4904;DHT22;2467;48.142;11.616;2023-12-14T00:25:37;7.10;99.90
4904;DHT22;2467;48.142;11.616;2023-12-14T00:26:09;7.10;99.90
4904;DHT22;2467;48.142;11.616;2023-12-14T00:26:41;7.10;99.90
4904;DHT22;2467;48.142;11.616;2023-12-14T00:27:14;7.10;99.90
4904;DHT22;2467;48.142;11.616;2023-12-14T00:27:46;7.20;99.90
4904;DHT22;2467;48.142;11.616;2023-12-14T00:28:18;7.20;99.90
4904;DHT22;2467;48.142;11.616;2023-12-14T00:28:50;7.20;99.90
4904;DHT22;2467;48.142;11.616;2023-12-14T00:29:31;7.20;99.90
4904;DHT22;2467;48.142;11.616;2023-12-14T00:30:05;7.20;99.90
4904;DHT22;2467;48.142;11.616;2023-12-14T00:30:37;7.20;99.90
4904;DHT22;2467;48.142;11.616;2023-12-14T00:31:09;7.10;99.90
4904;DHT22;2467;48.142;11.616;2023-12-14T00:31:43;7.10;99.90
4904;DHT22;2467;48.142;11.616;2023-12-14T00:32:16;7.10;99.90
4904;DHT22;2467;48.142;11.616;2023-12-14T00:32:48;7.10;99.90
4904;DHT22;2467;48.142;11.616;2023-12-14T00:33:20;7.10;99.90
4904;DHT22;2467;48.142;11.616;2023-12-14T00:33:54;7.10;99.90
4904;DHT22;2467;48.142;11.616;2023-12-14T00:34:26;7.10;99.90
4904;DHT22;2467;48.142;11.616;2023-12-14T00:34:58;7.10;99.90
4904;DHT22;2467;48.142;11.616;2023-12-14T00:35:31;7.10;99.90
4904;DHT22;2467;48.142;11.616;2023-12-14T00:36:04;7.10;99.90
4904;DHT22;2467;48.142;11.616;2023-12-14T00:36:36;7.10;99.90
4904;DHT22;2467;48.142;11.616;2023-12-14T00:37:09;7.10;99.90
4904;DHT22;2467;48.142;11.616;2023-12-14T00:37:41;7.10;99.90
4904;DHT22;2467;48.142;11.616;2023-12-14T00:38:13;7.10;99.90
4904;DHT22;2467;48.142;11.616;2023-12-14T00:38:46;7.10;99.90
4904;DHT22;2467;48.142;11.616;2023-12-14T00:39:19;7.00;99.90
4904;DHT22;2467;48.142;11.616;2023-12-14T00:39:51;7.10;99.90
4904;DHT22;2467;48.142;11.616;2023-12-14T00:40:23;7.00;99.90
4904;DHT22;2467;48.142;11.616;2023-12-14T00:40:55;7.00;99.90
4904;DHT22;2467;48.142;11.616;2023-12-14T00:41:27;7.00;99.90
4904;DHT22;2467;48.142;11.616;2023-12-14T00:42:00;7.00;99.90
4904;DHT22;2467;48.142;11.616;2023-12-14T00:42:32;7.00;99.90
4904;DHT22;2467;48.142;11.616;2023-12-14T00:43:04;7.00;99.90
4904;DHT22;2467;48.142;11.616;2023-12-14T00:43:36;7.00;99.90
4904;DHT22;2467;48.142;11.616;2023-12-14T00:44:10;7.00;99.90
4904;DHT22;2467;48.142;11.616;2023-12-14T00:44:42;6.90;99.90
4904;DHT22;2467;48.142;11.616;2023-12-14T00:45:14;6.90;99.90
4904;DHT22;2467;48.142;11.616;2023-12-14T00:45:46;6.90;99.90
4904;DHT22;2467;48.142;11.616;2023-12-14T00:46:19;6.90;99.90
4904;DHT22;2467;48.142;11.616;2023-12-14T00:46:53;6.90;99.90
4904;DHT22;2467;48.142;11.616;2023-12-14T00:47:25;7.00;99.90
4904;DHT22;2467;48.142;11.616;2023-12-14T00:47:57;7.00;99.90
4904;DHT22;2467;48.142;11.616;2023-12-14T00:48:30;7.00;99.90
4904;DHT22;2467;48.142;11.616;2023-12-14T00:49:02;7.00;99.90
4904;DHT22;2467;48.142;11.616;2023-12-14T00:49:34;7.00;99.90
4904;DHT22;2467;48.142;11.616;2023-12-14T00:50:07;7.00;99.90
4904;DHT22;2467;48.142;11.616;2023-12-14T00:50:40;7.00;99.90
4904;DHT22;2467;48.142;11.616;2023-12-14T00:51:12;7.00;99.90
4904;DHT22;2467;48.142;11.616;2023-12-14T00:51:44;7.00;99.90
4904;DHT22;2467;48.142;11.616;2023-12-14T00:52:16;7.00;99.90
4904;DHT22;2467;48.142;11.616;2023-12-14T00:52:49;7.00;99.90
4904;DHT22;2467;48.142;11.616;2023-12-14T00:53:21;7.00;99.90
4904;DHT22;2467;48.142;11.616;2023-12-14T00:53:54;7.00;99.90
4904;DHT22;2467;48.142;11.616;2023-12-14T00:54:26;7.00;99.90
4904;DHT22;2467;48.142;11.616;2023-12-14T00:54:59;7.00;99.90
4904;DHT22;2467;48.142;11.616;2023-12-14T00:55:31;7.00;99.90
4904;DHT22;2467;48.142;11.616;2023-12-14T00:56:03;7.00;99.90
4904;DHT22;2467;48.142;11.616;2023-12-14T00:56:35;7.00;99.90
4904;DHT22;2467;48.142;11.616;2023-12-14T00:57:08;7.00;99.90
4904;DHT22;2467;48.142;11.616;2023-12-14T00:57:40;7.00;99.90
4904;DHT22;2467;48.142;11.616;2023-12-14T00:58:12;7.00;99.90
4904;DHT22;2467;48.142;11.616;2023-12-14T00:58:45;7.00;99.90
4904;DHT22;2467;48.142;11.616;2023-12-14T00:59:18;7.00;99.90
4904;DHT22;2467;48.142;11.616;2023-12-14T00:59:50;7.00;99.90
4904;DHT22;2467;48.142;11.616;2023-12-14T01:00:22;7.00;99.90
4904;DHT22;2467;48.142;11.616;2023-12-14T01:00:54;7.00;99.90
4904;DHT22;2467;48.142;11.616;2023-12-14T01:01:27;7.00;99.90
4904;DHT22;2467;48.142;11.616;2023-12-14T01:02:01;7.00;99.90
4904;DHT22;2467;48.142;11.616;2023-12-14T01:02:33;7.00;99.90
4904;DHT22;2467;48.142;11.616;2023-12-14T01:03:06;7.00;99.90
4904;DHT22;2467;48.142;11.616;2023-12-14T01:03:39;7.00;99.90
4904;DHT22;2467;48.142;11.616;2023-12-14T01:04:11;7.00;99.90
4904;DHT22;2467;48.142;11.616;2023-12-14T01:04:43;7.00;99.90
4904;DHT22;2467;48.142;11.616;2023-12-14T01:05:16;7.00;99.90
4904;DHT22;2467;48.142;11.616;2023-12-14T01:05:49;6.90;99.90
4904;DHT22;2467;48.142;11.616;2023-12-14T01:06:21;6.90;99.90
4904;DHT22;2467;48.142;11.616;2023-12-14T01:06:53;6.90;99.90
4904;DHT22;2467;48.142;11.616;2023-12-14T01:07:26;6.90;99.90
4904;DHT22;2467;48.142;11.616;2023-12-14T01:07:58;6.90;99.90
4904;DHT22;2467;48.142;11.616;2023-12-14T01:08:30;7.00;99.90
4904;DHT22;2467;48.142;11.616;2023-12-14T01:09:03;7.00;99.90
4904;DHT22;2467;48.142;11.616;2023-12-14T01:09:35;7.00;99.90
4904;DHT22;2467;48.142;11.616;2023-12-14T01:10:08;7.00;99.90
4904;DHT22;2467;48.142;11.616;2023-12-14T01:10:40;7.10;99.90
4904;DHT22;2467;48.142;11.616;2023-12-14T01:11:13;7.00;99.90
4904;DHT22;2467;48.142;11.616;2023-12-14T01:11:45;7.10;99.90
4904;DHT22;2467;48.142;11.616;2023-12-14T01:12:17;7.10;99.90
4904;DHT22;2467;48.142;11.616;2023-12-14T01:12:49;7.10;99.90
4904;DHT22;2467;48.142;11.616;2023-12-14T01:13:22;7.10;99.90
4904;DHT22;2467;48.142;11.616;2023-12-14T01:13:54;7.10;99.90
4904;DHT22;2467;48.142;11.616;2023-12-14T01:14:27;7.10;99.90
4904;DHT22;2467;48.142;11.616;2023-12-14T01:15:00;7.10;99.90
4904;DHT22;2467;48.142;11.616;2023-12-14T01:15:32;7.10;99.90
4904;DHT22;2467;48.142;11.616;2023-12-14T01:16:04;7.10;99.90
4904;DHT22;2467;48.142;11.616;2023-12-14T01:16:37;7.10;99.90
4904;DHT22;2467;48.142;11.616;2023-12-14T01:17:11;7.10;99.90
4904;DHT22;2467;48.142;11.616;2023-12-14T01:17:43;7.10;99.90
4904;DHT22;2467;48.142;11.616;2023-12-14T01:18:15;7.10;99.90
4904;DHT22;2467;48.142;11.616;2023-12-14T01:18:49;7.10;99.90
4904;DHT22;2467;48.142;11.616;2023-12-14T01:19:21;7.10;99.90
4904;DHT22;2467;48.142;11.616;2023-12-14T01:19:53;7.10;99.90
4904;DHT22;2467;48.142;11.616;2023-12-14T01:20:25;7.10;99.90
4904;DHT22;2467;48.142;11.616;2023-12-14T01:20:57;7.10;99.90
4904;DHT22;2467;48.142;11.616;2023-12-14T01:21:30;7.10;99.90
4904;DHT22;2467;48.142;11.616;2023-12-14T01:22:02;7.10;99.90
4904;DHT22;2467;48.142;11.616;2023-12-14T01:22:34;7.10;99.90
4904;DHT22;2467;48.142;11.616;2023-12-14T01:23:07;7.00;99.90
4904;DHT22;2467;48.142;11.616;2023-12-14T01:23:41;7.00;99.90
4904;DHT22;2467;48.142;11.616;2023-12-14T01:24:15;7.00;99.90
4904;DHT22;2467;48.142;11.616;2023-12-14T01:24:47;7.00;99.90
4904;DHT22;2467;48.142;11.616;2023-12-14T01:25:19;7.00;99.90
4904;DHT22;2467;48.142;11.616;2023-12-14T01:25:51;7.00;99.90
4904;DHT22;2467;48.142;11.616;2023-12-14T01:26:24;7.00;99.90
4904;DHT22;2467;48.142;11.616;2023-12-14T01:26:56;7.00;99.90
4904;DHT22;2467;48.142;11.616;2023-12-14T01:27:28;6.90;99.90
4904;DHT22;2467;48.142;11.616;2023-12-14T01:28:00;6.90;99.90
4904;DHT22;2467;48.142;11.616;2023-12-14T01:28:32;6.90;99.90
4904;DHT22;2467;48.142;11.616;2023-12-14T01:29:05;6.80;99.90
4904;DHT22;2467;48.142;11.616;2023-12-14T01:29:38;6.80;99.90
4904;DHT22;2467;48.142;11.616;2023-12-14T01:30:10;6.80;99.90
4904;DHT22;2467;48.142;11.616;2023-12-14T01:30:44;6.80;99.90
4904;DHT22;2467;48.142;11.616;2023-12-14T01:31:16;6.80;99.90
4904;DHT22;2467;48.142;11.616;2023-12-14T01:31:48;6.80;99.90
4904;DHT22;2467;48.142;11.616;2023-12-14T01:32:21;6.80;99.90
4904;DHT22;2467;48.142;11.616;2023-12-14T01:32:54;6.80;99.90
4904;DHT22;2467;48.142;11.616;2023-12-14T01:33:27;6.90;99.90
4904;DHT22;2467;48.142;11.616;2023-12-14T01:33:59;6.90;99.90
4904;DHT22;2467;48.142;11.616;2023-12-14T01:34:32;6.90;99.90
4904;DHT22;2467;48.142;11.616;2023-12-14T01:35:04;6.90;99.90
4904;DHT22;2467;48.142;11.616;2023-12-14T01:35:37;6.90;99.90
4904;DHT22;2467;48.142;11.616;2023-12-14T01:36:09;6.90;99.90
4904;DHT22;2467;48.142;11.616;2023-12-14T01:36:42;6.90;99.90
4904;DHT22;2467;48.142;11.616;2023-12-14T01:37:14;6.90;99.90
4904;DHT22;2467;48.142;11.616;2023-12-14T01:37:46;6.90;99.90
4904;DHT22;2467;48.142;11.616;2023-12-14T01:38:19;6.90;99.90
4904;DHT22;2467;48.142;11.616;2023-12-14T01:38:52;6.90;99.90
4904;DHT22;2467;48.142;11.616;2023-12-14T01:39:24;6.80;99.90
4904;DHT22;2467;48.142;11.616;2023-12-14T01:39:56;6.90;99.90
4904;DHT22;2467;48.142;11.616;2023-12-14T01:40:29;6.80;99.90
4904;DHT22;2467;48.142;11.616;2023-12-14T01:41:01;6.80;99.90
4904;DHT22;2467;48.142;11.616;2023-12-14T01:41:33;6.80;99.90
4904;DHT22;2467;48.142;11.616;2023-12-14T01:42:05;6.80;99.90
4904;DHT22;2467;48.142;11.616;2023-12-14T01:42:38;6.80;99.90
4904;DHT22;2467;48.142;11.616;2023-12-14T01:43:10;6.80;99.90
4904;DHT22;2467;48.142;11.616;2023-12-14T01:43:43;6.80;99.90
4904;DHT22;2467;48.142;11.616;2023-12-14T01:44:15;6.80;99.90
4904;DHT22;2467;48.142;11.616;2023-12-14T01:44:48;6.80;99.90
4904;DHT22;2467;48.142;11.616;2023-12-14T01:45:20;6.80;99.90
4904;DHT22;2467;48.142;11.616;2023-12-14T01:45:52;6.80;99.90
4904;DHT22;2467;48.142;11.616;2023-12-14T01:46:24;6.80;99.90
4904;DHT22;2467;48.142;11.616;2023-12-14T01:46:57;6.80;99.90
4904;DHT22;2467;48.142;11.616;2023-12-14T01:47:30;6.70;99.90
4904;DHT22;2467;48.142;11.616;2023-12-14T01:48:03;6.70;99.90
4904;DHT22;2467;48.142;11.616;2023-12-14T01:48:35;6.70;99.90
4904;DHT22;2467;48.142;11.616;2023-12-14T01:49:08;6.70;99.90
4904;DHT22;2467;48.142;11.616;2023-12-14T01:49:40;6.70;99.90
4904;DHT22;2467;48.142;11.616;2023-12-14T01:50:13;6.70;99.90
4904;DHT22;2467;48.142;11.616;2023-12-14T01:50:45;6.70;99.90
4904;DHT22;2467;48.142;11.616;2023-12-14T01:51:19;6.60;99.90
4904;DHT22;2467;48.142;11.616;2023-12-14T01:51:51;6.70;99.90
4904;DHT22;2467;48.142;11.616;2023-12-14T01:52:23;6.60;99.90
4904;DHT22;2467;48.142;11.616;2023-12-14T01:52:55;6.70;99.90
4904;DHT22;2467;48.142;11.616;2023-12-14T01:53:27;6.60;99.90
4904;DHT22;2467;48.142;11.616;2023-12-14T01:54:00;6.60;99.90
4904;DHT22;2467;48.142;11.616;2023-12-14T01:54:32;6.60;99.90
4904;DHT22;2467;48.142;11.616;2023-12-14T01:55:05;6.60;99.90
4904;DHT22;2467;48.142;11.616;2023-12-14T01:55:39;6.60;99.90
4904;DHT22;2467;48.142;11.616;2023-12-14T01:56:11;6.60;99.90
4904;DHT22;2467;48.142;11.616;2023-12-14T01:56:43;6.70;99.90
4904;DHT22;2467;48.142;11.616;2023-12-14T01:57:15;6.60;99.90
4904;DHT22;2467;48.142;11.616;2023-12-14T01:57:47;6.60;99.90
4904;DHT22;2467;48.142;11.616;2023-12-14T01:58:20;6.60;99.90
4904;DHT22;2467;48.142;11.616;2023-12-14T01:58:53;6.70;99.90
4904;DHT22;2467;48.142;11.616;2023-12-14T01:59:25;6.70;99.90
4904;DHT22;2467;48.142;11.616;2023-12-14T01:59:58;6.70;99.90
4904;DHT22;2467;48.142;11.616;2023-12-14T02:00:36;6.70;99.90
4904;DHT22;2467;48.142;11.616;2023-12-14T02:01:18;6.70;99.90
4904;DHT22;2467;48.142;11.616;2023-12-14T02:01:54;6.70;99.90
4904;DHT22;2467;48.142;11.616;2023-12-14T02:02:29;6.70;99.90
4904;DHT22;2467;48.142;11.616;2023-12-14T02:03:02;6.70;99.90
4904;DHT22;2467;48.142;11.616;2023-12-14T02:03:35;6.70;99.90
4904;DHT22;2467;48.142;11.616;2023-12-14T02:04:08;6.70;99.90
4904;DHT22;2467;48.142;11.616;2023-12-14T02:04:40;6.70;99.90
4904;DHT22;2467;48.142;11.616;2023-12-14T02:05:12;6.70;99.90
4904;DHT22;2467;48.142;11.616;2023-12-14T02:05:45;6.70;99.90
4904;DHT22;2467;48.142;11.616;2023-12-14T02:06:17;6.70;99.90
4904;DHT22;2467;48.142;11.616;2023-12-14T02:06:49;6.80;99.90
4904;DHT22;2467;48.142;11.616;2023-12-14T02:07:22;6.80;99.90
4904;DHT22;2467;48.142;11.616;2023-12-14T02:07:55;6.80;99.90
4904;DHT22;2467;48.142;11.616;2023-12-14T02:08:27;6.80;99.90
4904;DHT22;2467;48.142;11.616;2023-12-14T02:09:00;6.80;99.90
4904;DHT22;2467;48.142;11.616;2023-12-14T02:09:32;6.80;99.90
4904;DHT22;2467;48.142;11.616;2023-12-14T02:10:06;6.80;99.90
4904;DHT22;2467;48.142;11.616;2023-12-14T02:10:38;6.80;99.90
4904;DHT22;2467;48.142;11.616;2023-12-14T02:11:11;6.80;99.90
4904;DHT22;2467;48.142;11.616;2023-12-14T02:11:43;6.80;99.90
4904;DHT22;2467;48.142;11.616;2023-12-14T02:12:16;6.80;99.90
4904;DHT22;2467;48.142;11.616;2023-12-14T02:12:48;6.80;99.90
4904;DHT22;2467;48.142;11.616;2023-12-14T02:13:21;6.70;99.90
4904;DHT22;2467;48.142;11.616;2023-12-14T02:13:53;6.70;99.90
4904;DHT22;2467;48.142;11.616;2023-12-14T02:14:26;6.70;99.90
4904;DHT22;2467;48.142;11.616;2023-12-14T02:14:59;6.70;99.90
4904;DHT22;2467;48.142;11.616;2023-12-14T02:15:31;6.60;99.90
4904;DHT22;2467;48.142;11.616;2023-12-14T02:16:04;6.70;99.90
4904;DHT22;2467;48.142;11.616;2023-12-14T02:16:37;6.70;99.90
4904;DHT22;2467;48.142;11.616;2023-12-14T02:17:10;6.70;99.90
4904;DHT22;2467;48.142;11.616;2023-12-14T02:17:43;6.60;99.90
4904;DHT22;2467;48.142;11.616;2023-12-14T02:18:15;6.60;99.90
4904;DHT22;2467;48.142;11.616;2023-12-14T02:18:49;6.70;99.90
4904;DHT22;2467;48.142;11.616;2023-12-14T02:19:21;6.60;99.90
4904;DHT22;2467;48.142;11.616;2023-12-14T02:19:53;6.60;99.90
4904;DHT22;2467;48.142;11.616;2023-12-14T02:20:25;6.60;99.90
4904;DHT22;2467;48.142;11.616;2023-12-14T02:20:58;6.60;99.90
4904;DHT22;2467;48.142;11.616;2023-12-14T02:21:30;6.70;99.90
4904;DHT22;2467;48.142;11.616;2023-12-14T02:22:02;6.70;99.90
4904;DHT22;2467;48.142;11.616;2023-12-14T02:22:48;6.70;99.90
4904;DHT22;2467;48.142;11.616;2023-12-14T02:23:21;6.70;99.90
4904;DHT22;2467;48.142;11.616;2023-12-14T02:23:53;6.70;99.90
4904;DHT22;2467;48.142;11.616;2023-12-14T02:24:26;6.70;99.90
4904;DHT22;2467;48.142;11.616;2023-12-14T02:24:58;6.70;99.90
4904;DHT22;2467;48.142;11.616;2023-12-14T02:25:30;6.70;99.90
4904;DHT22;2467;48.142;11.616;2023-12-14T02:26:03;6.70;99.90
4904;DHT22;2467;48.142;11.616;2023-12-14T02:26:36;6.70;99.90
4904;DHT22;2467;48.142;11.616;2023-12-14T02:27:08;6.80;99.90
4904;DHT22;2467;48.142;11.616;2023-12-14T02:27:40;6.70;99.90
4904;DHT22;2467;48.142;11.616;2023-12-14T02:28:12;6.80;99.90
4904;DHT22;2467;48.142;11.616;2023-12-14T02:28:45;6.80;99.90
4904;DHT22;2467;48.142;11.616;2023-12-14T02:29:18;6.80;99.90
4904;DHT22;2467;48.142;11.616;2023-12-14T02:29:49;6.80;99.90
4904;DHT22;2467;48.142;11.616;2023-12-14T02:30:21;6.80;99.90
4904;DHT22;2467;48.142;11.616;2023-12-14T02:30:55;6.70;99.90
4904;DHT22;2467;48.142;11.616;2023-12-14T02:31:27;6.70;99.90
4904;DHT22;2467;48.142;11.616;2023-12-14T02:31:59;6.70;99.90
4904;DHT22;2467;48.142;11.616;2023-12-14T02:32:31;6.70;99.90
4904;DHT22;2467;48.142;11.616;2023-12-14T02:33:03;6.70;99.90
4904;DHT22;2467;48.142;11.616;2023-12-14T02:33:36;6.70;99.90
4904;DHT22;2467;48.142;11.616;2023-12-14T02:34:08;6.70;99.90
4904;DHT22;2467;48.142;11.616;2023-12-14T02:34:40;6.70;99.90
4904;DHT22;2467;48.142;11.616;2023-12-14T02:35:13;6.70;99.90
4904;DHT22;2467;48.142;11.616;2023-12-14T02:35:46;6.70;99.90
4904;DHT22;2467;48.142;11.616;2023-12-14T02:36:18;6.70;99.90
4904;DHT22;2467;48.142;11.616;2023-12-14T02:36:50;6.70;99.90
4904;DHT22;2467;48.142;11.616;2023-12-14T02:37:22;6.70;99.90
4904;DHT22;2467;48.142;11.616;2023-12-14T02:37:55;6.70;99.90
4904;DHT22;2467;48.142;11.616;2023-12-14T02:38:28;6.70;99.90
4904;DHT22;2467;48.142;11.616;2023-12-14T02:39:00;6.70;99.90
4904;DHT22;2467;48.142;11.616;2023-12-14T02:39:32;6.70;99.90
4904;DHT22;2467;48.142;11.616;2023-12-14T02:40:05;6.70;99.90
4904;DHT22;2467;48.142;11.616;2023-12-14T02:40:39;6.70;99.90
4904;DHT22;2467;48.142;11.616;2023-12-14T02:41:11;6.70;99.90
4904;DHT22;2467;48.142;11.616;2023-12-14T02:41:43;6.70;99.90
4904;DHT22;2467;48.142;11.616;2023-12-14T02:42:15;6.60;99.90
4904;DHT22;2467;48.142;11.616;2023-12-14T02:42:47;6.60;99.90
4904;DHT22;2467;48.142;11.616;2023-12-14T02:43:20;6.60;99.90
4904;DHT22;2467;48.142;11.616;2023-12-14T02:43:52;6.60;99.90
4904;DHT22;2467;48.142;11.616;2023-12-14T02:44:24;6.60;99.90
4904;DHT22;2467;48.142;11.616;2023-12-14T02:44:57;6.60;99.90
4904;DHT22;2467;48.142;11.616;2023-12-14T02:45:29;6.60;99.90
4904;DHT22;2467;48.142;11.616;2023-12-14T02:46:01;6.60;99.90
4904;DHT22;2467;48.142;11.616;2023-12-14T02:46:34;6.60;99.90
4904;DHT22;2467;48.142;11.616;2023-12-14T02:47:07;6.60;99.90
4904;DHT22;2467;48.142;11.616;2023-12-14T02:47:39;6.60;99.90
4904;DHT22;2467;48.142;11.616;2023-12-14T02:48:11;6.60;99.90
4904;DHT22;2467;48.142;11.616;2023-12-14T02:48:43;6.60;99.90
4904;DHT22;2467;48.142;11.616;2023-12-14T02:49:16;6.60;99.90
4904;DHT22;2467;48.142;11.616;2023-12-14T02:49:48;6.60;99.90
4904;DHT22;2467;48.142;11.616;2023-12-14T02:50:21;6.60;99.90
4904;DHT22;2467;48.142;11.616;2023-12-14T02:50:53;6.60;99.90
4904;DHT22;2467;48.142;11.616;2023-12-14T02:51:26;6.60;99.90
4904;DHT22;2467;48.142;11.616;2023-12-14T02:51:58;6.70;99.90
4904;DHT22;2467;48.142;11.616;2023-12-14T02:52:30;6.60;99.90
4904;DHT22;2467;48.142;11.616;2023-12-14T02:53:03;6.60;99.90
4904;DHT22;2467;48.142;11.616;2023-12-14T02:53:36;6.60;99.90
4904;DHT22;2467;48.142;11.616;2023-12-14T02:54:08;6.60;99.90
4904;DHT22;2467;48.142;11.616;2023-12-14T02:54:40;6.60;99.90
4904;DHT22;2467;48.142;11.616;2023-12-14T02:55:12;6.60;99.90
4904;DHT22;2467;48.142;11.616;2023-12-14T02:55:45;6.60;99.90
4904;DHT22;2467;48.142;11.616;2023-12-14T02:56:17;6.60;99.90
4904;DHT22;2467;48.142;11.616;2023-12-14T02:56:49;6.60;99.90
4904;DHT22;2467;48.142;11.616;2023-12-14T02:57:22;6.60;99.90
4904;DHT22;2467;48.142;11.616;2023-12-14T02:57:54;6.50;99.90
4904;DHT22;2467;48.142;11.616;2023-12-14T02:58:27;6.50;99.90
4904;DHT22;2467;48.142;11.616;2023-12-14T02:58:59;6.50;99.90
4904;DHT22;2467;48.142;11.616;2023-12-14T02:59:32;6.50;99.90
4904;DHT22;2467;48.142;11.616;2023-12-14T03:00:05;6.50;99.90
4904;DHT22;2467;48.142;11.616;2023-12-14T03:00:37;6.50;99.90
4904;DHT22;2467;48.142;11.616;2023-12-14T03:01:09;6.50;99.90
4904;DHT22;2467;48.142;11.616;2023-12-14T03:01:42;6.50;99.90
4904;DHT22;2467;48.142;11.616;2023-12-14T03:02:14;6.50;99.90
4904;DHT22;2467;48.142;11.616;2023-12-14T03:02:47;6.50;99.90
4904;DHT22;2467;48.142;11.616;2023-12-14T03:03:19;6.50;99.90
4904;DHT22;2467;48.142;11.616;2023-12-14T03:03:52;6.50;99.90
4904;DHT22;2467;48.142;11.616;2023-12-14T03:04:24;6.50;99.90
4904;DHT22;2467;48.142;11.616;2023-12-14T03:04:56;6.40;99.90
4904;DHT22;2467;48.142;11.616;2023-12-14T03:05:28;6.50;99.90
4904;DHT22;2467;48.142;11.616;2023-12-14T03:06:01;6.40;99.90
4904;DHT22;2467;48.142;11.616;2023-12-14T03:06:33;6.50;99.90
4904;DHT22;2467;48.142;11.616;2023-12-14T03:07:05;6.50;99.90
4904;DHT22;2467;48.142;11.616;2023-12-14T03:07:37;6.40;99.90
4904;DHT22;2467;48.142;11.616;2023-12-14T03:08:12;6.40;99.90
4904;DHT22;2467;48.142;11.616;2023-12-14T03:08:44;6.40;99.90
4904;DHT22;2467;48.142;11.616;2023-12-14T03:09:16;6.50;99.90
4904;DHT22;2467;48.142;11.616;2023-12-14T03:09:48;6.40;99.90
4904;DHT22;2467;48.142;11.616;2023-12-14T03:10:21;6.50;99.90
4904;DHT22;2467;48.142;11.616;2023-12-14T03:10:53;6.50;99.90
4904;DHT22;2467;48.142;11.616;2023-12-14T03:11:25;6.50;99.90
4904;DHT22;2467;48.142;11.616;2023-12-14T03:11:59;6.50;99.90
4904;DHT22;2467;48.142;11.616;2023-12-14T03:12:32;6.60;99.90
4904;DHT22;2467;48.142;11.616;2023-12-14T03:13:04;6.60;99.90
4904;DHT22;2467;48.142;11.616;2023-12-14T03:13:36;6.60;99.90
4904;DHT22;2467;48.142;11.616;2023-12-14T03:14:09;6.60;99.90
4904;DHT22;2467;48.142;11.616;2023-12-14T03:14:42;6.60;99.90
4904;DHT22;2467;48.142;11.616;2023-12-14T03:15:18;6.60;99.90
4904;DHT22;2467;48.142;11.616;2023-12-14T03:15:50;6.60;99.90
4904;DHT22;2467;48.142;11.616;2023-12-14T03:16:23;6.50;99.90
4904;DHT22;2467;48.142;11.616;2023-12-14T03:16:55;6.50;99.90
4904;DHT22;2467;48.142;11.616;2023-12-14T03:17:27;6.50;99.90
4904;DHT22;2467;48.142;11.616;2023-12-14T03:17:59;6.50;99.90
4904;DHT22;2467;48.142;11.616;2023-12-14T03:18:35;6.50;99.90
4904;DHT22;2467;48.142;11.616;2023-12-14T03:19:07;6.50;99.90
4904;DHT22;2467;48.142;11.616;2023-12-14T03:19:39;6.50;99.90
4904;DHT22;2467;48.142;11.616;2023-12-14T03:20:12;6.50;99.90
4904;DHT22;2467;48.142;11.616;2023-12-14T03:20:46;6.50;99.90
4904;DHT22;2467;48.142;11.616;2023-12-14T03:21:18;6.40;99.90
4904;DHT22;2467;48.142;11.616;2023-12-14T03:21:50;6.40;99.90
4904;DHT22;2467;48.142;11.616;2023-12-14T03:22:22;6.40;99.90
4904;DHT22;2467;48.142;11.616;2023-12-14T03:22:55;6.40;99.90
4904;DHT22;2467;48.142;11.616;2023-12-14T03:23:29;6.40;99.90
4904;DHT22;2467;48.142;11.616;2023-12-14T03:24:01;6.40;99.90
4904;DHT22;2467;48.142;11.616;2023-12-14T03:24:33;6.40;99.90
4904;DHT22;2467;48.142;11.616;2023-12-14T03:25:07;6.40;99.90
4904;DHT22;2467;48.142;11.616;2023-12-14T03:25:40;6.40;99.90
4904;DHT22;2467;48.142;11.616;2023-12-14T03:26:12;6.40;99.90
4904;DHT22;2467;48.142;11.616;2023-12-14T03:26:44;6.40;99.90
4904;DHT22;2467;48.142;11.616;2023-12-14T03:27:16;6.40;99.90
4904;DHT22;2467;48.142;11.616;2023-12-14T03:27:49;6.40;99.90
4904;DHT22;2467;48.142;11.616;2023-12-14T03:28:21;6.40;99.90
4904;DHT22;2467;48.142;11.616;2023-12-14T03:28:53;6.40;99.90
4904;DHT22;2467;48.142;11.616;2023-12-14T03:29:25;6.40;99.90
4904;DHT22;2467;48.142;11.616;2023-12-14T03:29:57;6.40;99.90
4904;DHT22;2467;48.142;11.616;2023-12-14T03:30:30;6.40;99.90
4904;DHT22;2467;48.142;11.616;2023-12-14T03:31:03;6.40;99.90
4904;DHT22;2467;48.142;11.616;2023-12-14T03:31:35;6.40;99.90
4904;DHT22;2467;48.142;11.616;2023-12-14T03:32:07;6.40;99.90
4904;DHT22;2467;48.142;11.616;2023-12-14T03:32:40;6.40;99.90